sensor_id;sensor_type;location;lat;lon;timestamp;P1;durP1;ratioP1;P2;durP2;ratioP2
67749;SDS011;54550;48.838;8.828;2022-12-10T00:01:05;80.23;;;39.10;;
67749;SDS011;54550;48.838;8.828;2022-12-10T00:03:38;86.03;;;37.90;;
67749;SDS011;54550;48.838;8.828;2022-12-10T00:06:05;88.63;;;38.37;;
67749;SDS011;54550;48.838;8.828;2022-12-10T00:08:32;91.35;;;40.75;;
67749;SDS011;54550;48.838;8.828;2022-12-10T00:10:59;108.03;;;42.38;;
67749;SDS011;54550;48.838;8.828;2022-12-10T00:13:26;96.50;;;39.88;;
67749;SDS011;54550;48.838;8.828;2022-12-10T00:15:52;85.03;;;41.37;;
67749;SDS011;54550;48.838;8.828;2022-12-10T00:18:17;87.20;;;41.00;;
67749;SDS011;54550;48.838;8.828;2022-12-10T00:20:43;88.33;;;42.20;;
67749;SDS011;54550;48.838;8.828;2022-12-10T00:23:08;99.77;;;39.70;;
67749;SDS011;54550;48.838;8.828;2022-12-10T00:25:34;100.57;;;40.77;;
67749;SDS011;54550;48.838;8.828;2022-12-10T00:28:00;98.47;;;42.97;;
67749;SDS011;54550;48.838;8.828;2022-12-10T00:30:25;85.60;;;40.13;;
67749;SDS011;54550;48.838;8.828;2022-12-10T00:32:51;89.27;;;40.80;;
67749;SDS011;54550;48.838;8.828;2022-12-10T00:35:16;94.17;;;40.93;;
67749;SDS011;54550;48.838;8.828;2022-12-10T00:37:42;87.90;;;39.67;;
67749;SDS011;54550;48.838;8.828;2022-12-10T00:40:08;81.50;;;36.90;;
67749;SDS011;54550;48.838;8.828;2022-12-10T00:42:35;97.40;;;39.63;;
67749;SDS011;54550;48.838;8.828;2022-12-10T00:45:02;96.47;;;40.05;;
67749;SDS011;54550;48.838;8.828;2022-12-10T00:47:29;99.18;;;39.33;;
67749;SDS011;54550;48.838;8.828;2022-12-10T00:49:54;82.90;;;38.23;;
67749;SDS011;54550;48.838;8.828;2022-12-10T00:52:20;99.37;;;39.63;;
67749;SDS011;54550;48.838;8.828;2022-12-10T00:54:45;106.90;;;42.13;;
67749;SDS011;54550;48.838;8.828;2022-12-10T00:57:11;88.17;;;39.07;;
67749;SDS011;54550;48.838;8.828;2022-12-10T00:59:36;90.77;;;39.57;;
67749;SDS011;54550;48.838;8.828;2022-12-10T01:02:02;90.07;;;41.30;;
67749;SDS011;54550;48.838;8.828;2022-12-10T01:04:28;91.10;;;38.73;;
67749;SDS011;54550;48.838;8.828;2022-12-10T01:06:53;97.87;;;40.90;;
67749;SDS011;54550;48.838;8.828;2022-12-10T01:09:20;108.63;;;43.00;;
67749;SDS011;54550;48.838;8.828;2022-12-10T01:11:52;94.80;;;41.53;;
67749;SDS011;54550;48.838;8.828;2022-12-10T01:14:22;99.95;;;40.70;;
67749;SDS011;54550;48.838;8.828;2022-12-10T01:16:56;90.40;;;41.22;;
67749;SDS011;54550;48.838;8.828;2022-12-10T01:19:24;91.05;;;39.70;;
67749;SDS011;54550;48.838;8.828;2022-12-10T01:21:51;100.60;;;41.20;;
67749;SDS011;54550;48.838;8.828;2022-12-10T01:24:17;100.72;;;39.95;;
67749;SDS011;54550;48.838;8.828;2022-12-10T01:26:44;103.43;;;41.00;;
67749;SDS011;54550;48.838;8.828;2022-12-10T01:29:10;97.47;;;38.47;;
67749;SDS011;54550;48.838;8.828;2022-12-10T01:31:37;90.68;;;40.83;;
67749;SDS011;54550;48.838;8.828;2022-12-10T01:34:04;103.82;;;42.50;;
67749;SDS011;54550;48.838;8.828;2022-12-10T01:36:32;102.15;;;41.58;;
67749;SDS011;54550;48.838;8.828;2022-12-10T01:38:59;101.63;;;42.33;;
67749;SDS011;54550;48.838;8.828;2022-12-10T01:41:28;110.50;;;42.78;;
67749;SDS011;54550;48.838;8.828;2022-12-10T01:46:26;120.90;;;44.20;;
67749;SDS011;54550;48.838;8.828;2022-12-10T01:48:54;94.85;;;39.85;;
67749;SDS011;54550;48.838;8.828;2022-12-10T01:51:20;98.03;;;41.08;;
67749;SDS011;54550;48.838;8.828;2022-12-10T01:53:47;93.45;;;38.50;;
67749;SDS011;54550;48.838;8.828;2022-12-10T01:56:15;90.10;;;39.65;;
67749;SDS011;54550;48.838;8.828;2022-12-10T01:58:41;87.88;;;39.05;;
67749;SDS011;54550;48.838;8.828;2022-12-10T02:01:10;93.80;;;40.20;;
67749;SDS011;54550;48.838;8.828;2022-12-10T02:04:03;100.05;;;45.33;;
67749;SDS011;54550;48.838;8.828;2022-12-10T02:09:18;79.65;;;39.00;;
67749;SDS011;54550;48.838;8.828;2022-12-10T02:12:14;92.97;;;39.47;;
67749;SDS011;54550;48.838;8.828;2022-12-10T02:22:48;90.03;;;38.13;;
67749;SDS011;54550;48.838;8.828;2022-12-10T02:25:21;98.55;;;41.90;;
67749;SDS011;54550;48.838;8.828;2022-12-10T02:27:57;81.40;;;38.08;;
67749;SDS011;54550;48.838;8.828;2022-12-10T02:30:43;96.47;;;39.53;;
67749;SDS011;54550;48.838;8.828;2022-12-10T02:33:10;103.38;;;37.78;;
67749;SDS011;54550;48.838;8.828;2022-12-10T02:35:38;103.47;;;43.17;;
67749;SDS011;54550;48.838;8.828;2022-12-10T02:38:12;89.30;;;40.20;;
67749;SDS011;54550;48.838;8.828;2022-12-10T02:40:48;94.78;;;39.15;;
67749;SDS011;54550;48.838;8.828;2022-12-10T02:43:18;99.30;;;39.55;;
67749;SDS011;54550;48.838;8.828;2022-12-10T02:45:45;101.90;;;39.72;;
67749;SDS011;54550;48.838;8.828;2022-12-10T02:48:11;94.70;;;41.10;;
67749;SDS011;54550;48.838;8.828;2022-12-10T02:50:38;109.78;;;41.50;;
67749;SDS011;54550;48.838;8.828;2022-12-10T02:53:04;103.77;;;42.73;;
67749;SDS011;54550;48.838;8.828;2022-12-10T02:55:37;96.93;;;40.00;;
67749;SDS011;54550;48.838;8.828;2022-12-10T02:58:41;101.57;;;42.08;;
67749;SDS011;54550;48.838;8.828;2022-12-10T03:04:06;101.15;;;40.25;;
67749;SDS011;54550;48.838;8.828;2022-12-10T03:06:57;82.45;;;36.90;;
67749;SDS011;54550;48.838;8.828;2022-12-10T03:09:41;84.05;;;38.05;;
67749;SDS011;54550;48.838;8.828;2022-12-10T03:12:19;81.45;;;33.90;;
67749;SDS011;54550;48.838;8.828;2022-12-10T03:14:57;78.63;;;35.35;;
67749;SDS011;54550;48.838;8.828;2022-12-10T03:17:26;76.50;;;34.92;;
67749;SDS011;54550;48.838;8.828;2022-12-10T03:19:54;79.82;;;35.65;;
67749;SDS011;54550;48.838;8.828;2022-12-10T03:22:21;78.18;;;36.95;;
67749;SDS011;54550;48.838;8.828;2022-12-10T03:24:46;86.80;;;39.43;;
67749;SDS011;54550;48.838;8.828;2022-12-10T03:27:12;92.80;;;38.40;;
67749;SDS011;54550;48.838;8.828;2022-12-10T03:29:47;92.03;;;39.38;;
67749;SDS011;54550;48.838;8.828;2022-12-10T03:32:16;89.40;;;40.40;;
67749;SDS011;54550;48.838;8.828;2022-12-10T03:34:43;94.03;;;38.85;;
67749;SDS011;54550;48.838;8.828;2022-12-10T03:37:09;90.13;;;38.97;;
67749;SDS011;54550;48.838;8.828;2022-12-10T03:39:36;87.95;;;37.72;;
67749;SDS011;54550;48.838;8.828;2022-12-10T03:42:04;94.00;;;43.30;;
67749;SDS011;54550;48.838;8.828;2022-12-10T03:44:31;107.65;;;42.38;;
67749;SDS011;54550;48.838;8.828;2022-12-10T03:46:58;98.75;;;40.58;;
67749;SDS011;54550;48.838;8.828;2022-12-10T03:49:24;89.40;;;39.28;;
67749;SDS011;54550;48.838;8.828;2022-12-10T03:51:49;86.93;;;36.73;;
67749;SDS011;54550;48.838;8.828;2022-12-10T03:54:15;87.93;;;37.13;;
67749;SDS011;54550;48.838;8.828;2022-12-10T03:56:41;91.00;;;40.10;;
67749;SDS011;54550;48.838;8.828;2022-12-10T03:59:06;100.33;;;40.07;;
67749;SDS011;54550;48.838;8.828;2022-12-10T04:01:32;99.17;;;38.70;;
67749;SDS011;54550;48.838;8.828;2022-12-10T04:03:58;99.70;;;40.30;;
67749;SDS011;54550;48.838;8.828;2022-12-10T04:06:23;113.93;;;46.27;;
67749;SDS011;54550;48.838;8.828;2022-12-10T04:08:49;107.67;;;41.53;;
67749;SDS011;54550;48.838;8.828;2022-12-10T04:11:17;94.70;;;41.28;;
67749;SDS011;54550;48.838;8.828;2022-12-10T04:13:43;95.43;;;39.77;;
67749;SDS011;54550;48.838;8.828;2022-12-10T04:16:27;98.93;;;42.53;;
67749;SDS011;54550;48.838;8.828;2022-12-10T04:18:54;116.05;;;39.95;;
67749;SDS011;54550;48.838;8.828;2022-12-10T04:21:29;114.78;;;43.70;;
67749;SDS011;54550;48.838;8.828;2022-12-10T04:24:16;95.70;;;41.42;;
67749;SDS011;54550;48.838;8.828;2022-12-10T04:27:06;96.80;;;41.28;;
67749;SDS011;54550;48.838;8.828;2022-12-10T04:29:37;91.55;;;39.92;;
67749;SDS011;54550;48.838;8.828;2022-12-10T04:32:03;107.50;;;38.53;;
67749;SDS011;54550;48.838;8.828;2022-12-10T04:34:29;105.57;;;40.07;;
67749;SDS011;54550;48.838;8.828;2022-12-10T04:36:54;98.27;;;42.40;;
67749;SDS011;54550;48.838;8.828;2022-12-10T04:39:22;104.13;;;39.95;;
67749;SDS011;54550;48.838;8.828;2022-12-10T04:41:48;85.17;;;38.20;;
67749;SDS011;54550;48.838;8.828;2022-12-10T04:44:14;91.18;;;37.88;;
67749;SDS011;54550;48.838;8.828;2022-12-10T04:46:40;96.67;;;37.17;;
67749;SDS011;54550;48.838;8.828;2022-12-10T04:49:06;116.47;;;41.83;;
67749;SDS011;54550;48.838;8.828;2022-12-10T04:51:32;91.30;;;41.17;;
67749;SDS011;54550;48.838;8.828;2022-12-10T04:53:58;82.20;;;37.57;;
67749;SDS011;54550;48.838;8.828;2022-12-10T04:56:24;99.30;;;41.27;;
67749;SDS011;54550;48.838;8.828;2022-12-10T04:58:49;93.90;;;40.93;;
67749;SDS011;54550;48.838;8.828;2022-12-10T05:01:15;87.77;;;40.63;;
67749;SDS011;54550;48.838;8.828;2022-12-10T05:03:43;106.38;;;40.92;;
67749;SDS011;54550;48.838;8.828;2022-12-10T05:06:10;103.57;;;41.70;;
67749;SDS011;54550;48.838;8.828;2022-12-10T05:08:37;99.20;;;43.20;;
67749;SDS011;54550;48.838;8.828;2022-12-10T05:11:05;101.18;;;41.42;;
67749;SDS011;54550;48.838;8.828;2022-12-10T05:13:32;105.72;;;43.22;;
67749;SDS011;54550;48.838;8.828;2022-12-10T05:16:00;102.53;;;40.73;;
67749;SDS011;54550;48.838;8.828;2022-12-10T05:18:27;96.85;;;40.67;;
67749;SDS011;54550;48.838;8.828;2022-12-10T05:20:53;92.07;;;41.27;;
67749;SDS011;54550;48.838;8.828;2022-12-10T05:23:18;94.90;;;40.50;;
67749;SDS011;54550;48.838;8.828;2022-12-10T05:25:59;91.90;;;41.25;;
67749;SDS011;54550;48.838;8.828;2022-12-10T05:28:27;100.90;;;44.47;;
67749;SDS011;54550;48.838;8.828;2022-12-10T05:30:53;99.68;;;41.58;;
67749;SDS011;54550;48.838;8.828;2022-12-10T05:33:19;99.50;;;41.97;;
67749;SDS011;54550;48.838;8.828;2022-12-10T05:36:01;101.53;;;39.13;;
67749;SDS011;54550;48.838;8.828;2022-12-10T05:38:29;126.55;;;44.70;;
67749;SDS011;54550;48.838;8.828;2022-12-10T05:41:00;102.28;;;41.28;;
67749;SDS011;54550;48.838;8.828;2022-12-10T05:43:29;112.70;;;43.17;;
67749;SDS011;54550;48.838;8.828;2022-12-10T05:45:59;108.18;;;42.35;;
67749;SDS011;54550;48.838;8.828;2022-12-10T05:48:26;102.78;;;44.92;;
67749;SDS011;54550;48.838;8.828;2022-12-10T05:50:51;116.73;;;46.93;;
67749;SDS011;54550;48.838;8.828;2022-12-10T05:53:17;108.57;;;43.67;;
67749;SDS011;54550;48.838;8.828;2022-12-10T05:55:43;116.43;;;44.87;;
67749;SDS011;54550;48.838;8.828;2022-12-10T05:58:09;113.83;;;46.07;;
67749;SDS011;54550;48.838;8.828;2022-12-10T06:00:35;119.40;;;45.72;;
67749;SDS011;54550;48.838;8.828;2022-12-10T06:03:03;109.57;;;45.20;;
67749;SDS011;54550;48.838;8.828;2022-12-10T06:05:29;130.77;;;49.77;;
67749;SDS011;54550;48.838;8.828;2022-12-10T06:07:54;105.73;;;44.87;;
67749;SDS011;54550;48.838;8.828;2022-12-10T06:10:20;116.70;;;46.47;;
67749;SDS011;54550;48.838;8.828;2022-12-10T06:12:45;137.23;;;48.50;;
67749;SDS011;54550;48.838;8.828;2022-12-10T06:15:11;126.20;;;48.40;;
67749;SDS011;54550;48.838;8.828;2022-12-10T06:17:36;136.17;;;49.30;;
67749;SDS011;54550;48.838;8.828;2022-12-10T06:20:02;145.57;;;48.77;;
67749;SDS011;54550;48.838;8.828;2022-12-10T06:22:28;123.00;;;50.00;;
67749;SDS011;54550;48.838;8.828;2022-12-10T06:24:54;130.40;;;47.00;;
67749;SDS011;54550;48.838;8.828;2022-12-10T06:27:19;141.70;;;49.37;;
67749;SDS011;54550;48.838;8.828;2022-12-10T06:29:45;124.17;;;48.00;;
67749;SDS011;54550;48.838;8.828;2022-12-10T06:32:10;124.77;;;47.33;;
67749;SDS011;54550;48.838;8.828;2022-12-10T06:34:36;137.20;;;50.03;;
67749;SDS011;54550;48.838;8.828;2022-12-10T06:37:01;127.03;;;50.37;;
67749;SDS011;54550;48.838;8.828;2022-12-10T06:39:27;122.80;;;49.50;;
67749;SDS011;54550;48.838;8.828;2022-12-10T06:41:53;132.47;;;50.33;;
67749;SDS011;54550;48.838;8.828;2022-12-10T06:44:18;132.90;;;50.50;;
67749;SDS011;54550;48.838;8.828;2022-12-10T06:46:44;124.47;;;47.30;;
67749;SDS011;54550;48.838;8.828;2022-12-10T06:49:09;133.13;;;47.40;;
67749;SDS011;54550;48.838;8.828;2022-12-10T06:51:35;119.33;;;48.57;;
67749;SDS011;54550;48.838;8.828;2022-12-10T06:54:03;120.32;;;48.50;;
67749;SDS011;54550;48.838;8.828;2022-12-10T06:56:29;123.82;;;47.97;;
67749;SDS011;54550;48.838;8.828;2022-12-10T06:58:54;107.47;;;46.33;;
67749;SDS011;54550;48.838;8.828;2022-12-10T07:01:21;134.27;;;47.37;;
67749;SDS011;54550;48.838;8.828;2022-12-10T07:03:54;140.68;;;48.28;;
67749;SDS011;54550;48.838;8.828;2022-12-10T07:06:21;145.48;;;51.03;;
67749;SDS011;54550;48.838;8.828;2022-12-10T07:08:48;129.07;;;49.42;;
67749;SDS011;54550;48.838;8.828;2022-12-10T07:11:16;126.30;;;46.03;;
67749;SDS011;54550;48.838;8.828;2022-12-10T07:13:43;136.07;;;49.90;;
67749;SDS011;54550;48.838;8.828;2022-12-10T07:16:16;120.33;;;47.10;;
67749;SDS011;54550;48.838;8.828;2022-12-10T07:18:43;126.53;;;46.28;;
67749;SDS011;54550;48.838;8.828;2022-12-10T07:21:17;111.55;;;46.35;;
67749;SDS011;54550;48.838;8.828;2022-12-10T07:23:44;128.18;;;45.45;;
67749;SDS011;54550;48.838;8.828;2022-12-10T07:26:10;132.90;;;46.78;;
67749;SDS011;54550;48.838;8.828;2022-12-10T07:28:36;136.38;;;46.40;;
67749;SDS011;54550;48.838;8.828;2022-12-10T07:31:06;123.00;;;47.67;;
67749;SDS011;54550;48.838;8.828;2022-12-10T07:33:33;129.98;;;51.28;;
67749;SDS011;54550;48.838;8.828;2022-12-10T07:36:02;122.60;;;47.78;;
67749;SDS011;54550;48.838;8.828;2022-12-10T07:38:29;139.63;;;50.33;;
67749;SDS011;54550;48.838;8.828;2022-12-10T07:40:55;118.97;;;46.75;;
67749;SDS011;54550;48.838;8.828;2022-12-10T07:43:21;114.27;;;45.43;;
67749;SDS011;54550;48.838;8.828;2022-12-10T07:45:46;129.63;;;50.07;;
67749;SDS011;54550;48.838;8.828;2022-12-10T07:48:12;136.53;;;53.53;;
67749;SDS011;54550;48.838;8.828;2022-12-10T07:50:39;130.50;;;47.63;;
67749;SDS011;54550;48.838;8.828;2022-12-10T07:53:04;112.60;;;45.10;;
67749;SDS011;54550;48.838;8.828;2022-12-10T07:55:30;138.60;;;47.17;;
67749;SDS011;54550;48.838;8.828;2022-12-10T07:57:55;131.43;;;47.83;;
67749;SDS011;54550;48.838;8.828;2022-12-10T08:00:21;127.10;;;47.33;;
67749;SDS011;54550;48.838;8.828;2022-12-10T08:02:46;123.53;;;48.17;;
67749;SDS011;54550;48.838;8.828;2022-12-10T08:05:12;132.63;;;49.20;;
67749;SDS011;54550;48.838;8.828;2022-12-10T08:07:38;131.27;;;46.57;;
67749;SDS011;54550;48.838;8.828;2022-12-10T08:10:03;117.13;;;46.43;;
67749;SDS011;54550;48.838;8.828;2022-12-10T08:12:29;129.95;;;49.88;;
67749;SDS011;54550;48.838;8.828;2022-12-10T08:14:55;115.53;;;47.63;;
67749;SDS011;54550;48.838;8.828;2022-12-10T08:17:20;125.03;;;45.20;;
67749;SDS011;54550;48.838;8.828;2022-12-10T08:19:46;122.40;;;45.60;;
67749;SDS011;54550;48.838;8.828;2022-12-10T08:22:11;116.97;;;46.10;;
67749;SDS011;54550;48.838;8.828;2022-12-10T08:24:37;119.40;;;47.67;;
67749;SDS011;54550;48.838;8.828;2022-12-10T08:27:03;108.80;;;43.70;;
67749;SDS011;54550;48.838;8.828;2022-12-10T08:29:28;114.30;;;43.57;;
67749;SDS011;54550;48.838;8.828;2022-12-10T08:31:54;109.20;;;43.70;;
67749;SDS011;54550;48.838;8.828;2022-12-10T08:34:19;125.37;;;43.57;;
67749;SDS011;54550;48.838;8.828;2022-12-10T08:36:45;130.33;;;47.93;;
67749;SDS011;54550;48.838;8.828;2022-12-10T08:39:11;110.37;;;45.10;;
67749;SDS011;54550;48.838;8.828;2022-12-10T08:41:40;95.28;;;39.45;;
67749;SDS011;54550;48.838;8.828;2022-12-10T08:44:06;112.63;;;45.38;;
67749;SDS011;54550;48.838;8.828;2022-12-10T08:46:32;101.60;;;44.20;;
67749;SDS011;54550;48.838;8.828;2022-12-10T08:48:57;120.07;;;45.27;;
67749;SDS011;54550;48.838;8.828;2022-12-10T08:51:24;103.22;;;43.05;;
67749;SDS011;54550;48.838;8.828;2022-12-10T08:53:49;109.03;;;43.17;;
67749;SDS011;54550;48.838;8.828;2022-12-10T08:56:15;101.27;;;41.83;;
67749;SDS011;54550;48.838;8.828;2022-12-10T08:58:41;100.80;;;44.77;;
67749;SDS011;54550;48.838;8.828;2022-12-10T09:01:10;98.20;;;39.72;;
67749;SDS011;54550;48.838;8.828;2022-12-10T09:03:41;94.32;;;42.33;;
67749;SDS011;54550;48.838;8.828;2022-12-10T09:06:07;92.67;;;41.60;;
67749;SDS011;54550;48.838;8.828;2022-12-10T09:08:35;92.35;;;40.35;;
67749;SDS011;54550;48.838;8.828;2022-12-10T09:11:05;87.20;;;40.33;;
67749;SDS011;54550;48.838;8.828;2022-12-10T09:13:42;91.93;;;40.17;;
67749;SDS011;54550;48.838;8.828;2022-12-10T09:16:08;65.50;;;34.00;;
67749;SDS011;54550;48.838;8.828;2022-12-10T09:18:34;73.68;;;37.53;;
67749;SDS011;54550;48.838;8.828;2022-12-10T09:21:03;78.77;;;38.77;;
67749;SDS011;54550;48.838;8.828;2022-12-10T09:23:30;90.75;;;38.15;;
67749;SDS011;54550;48.838;8.828;2022-12-10T09:25:56;81.97;;;37.00;;
67749;SDS011;54550;48.838;8.828;2022-12-10T09:28:21;90.60;;;39.43;;
67749;SDS011;54550;48.838;8.828;2022-12-10T09:30:54;74.23;;;37.97;;
67749;SDS011;54550;48.838;8.828;2022-12-10T09:33:24;65.38;;;36.20;;
67749;SDS011;54550;48.838;8.828;2022-12-10T09:35:50;72.70;;;33.58;;
67749;SDS011;54550;48.838;8.828;2022-12-10T09:38:16;68.00;;;34.57;;
67749;SDS011;54550;48.838;8.828;2022-12-10T09:40:46;72.23;;;33.57;;
67749;SDS011;54550;48.838;8.828;2022-12-10T09:43:37;59.33;;;32.30;;
67749;SDS011;54550;48.838;8.828;2022-12-10T09:46:23;64.28;;;32.85;;
67749;SDS011;54550;48.838;8.828;2022-12-10T09:51:49;69.30;;;32.90;;
67749;SDS011;54550;48.838;8.828;2022-12-10T09:54:23;56.30;;;30.27;;
67749;SDS011;54550;48.838;8.828;2022-12-10T09:56:51;64.03;;;31.80;;
67749;SDS011;54550;48.838;8.828;2022-12-10T09:59:34;72.05;;;35.03;;
67749;SDS011;54550;48.838;8.828;2022-12-10T10:04:41;59.90;;;30.25;;
67749;SDS011;54550;48.838;8.828;2022-12-10T10:07:08;61.03;;;29.80;;
67749;SDS011;54550;48.838;8.828;2022-12-10T10:09:43;53.55;;;29.48;;
67749;SDS011;54550;48.838;8.828;2022-12-10T10:12:13;55.53;;;29.53;;
67749;SDS011;54550;48.838;8.828;2022-12-10T10:14:39;50.70;;;27.88;;
67749;SDS011;54550;48.838;8.828;2022-12-10T10:17:11;60.30;;;29.08;;
67749;SDS011;54550;48.838;8.828;2022-12-10T10:19:58;56.90;;;30.40;;
67749;SDS011;54550;48.838;8.828;2022-12-10T10:22:23;50.73;;;28.90;;
67749;SDS011;54550;48.838;8.828;2022-12-10T10:24:51;50.30;;;27.38;;
67749;SDS011;54550;48.838;8.828;2022-12-10T10:27:18;49.13;;;27.10;;
67749;SDS011;54550;48.838;8.828;2022-12-10T10:29:54;43.45;;;25.20;;
67749;SDS011;54550;48.838;8.828;2022-12-10T10:32:23;56.65;;;26.17;;
67749;SDS011;54550;48.838;8.828;2022-12-10T10:35:00;52.83;;;24.42;;
67749;SDS011;54550;48.838;8.828;2022-12-10T10:37:31;42.05;;;23.45;;
67749;SDS011;54550;48.838;8.828;2022-12-10T10:40:06;47.03;;;25.60;;
67749;SDS011;54550;48.838;8.828;2022-12-10T10:42:48;47.90;;;24.63;;
67749;SDS011;54550;48.838;8.828;2022-12-10T10:48:12;45.75;;;23.52;;
67749;SDS011;54550;48.838;8.828;2022-12-10T10:50:44;38.90;;;22.70;;
67749;SDS011;54550;48.838;8.828;2022-12-10T10:53:21;52.63;;;26.80;;
67749;SDS011;54550;48.838;8.828;2022-12-10T10:55:50;42.92;;;23.83;;
67749;SDS011;54550;48.838;8.828;2022-12-10T10:58:18;44.55;;;23.65;;
67749;SDS011;54550;48.838;8.828;2022-12-10T11:01:04;35.80;;;21.60;;
67749;SDS011;54550;48.838;8.828;2022-12-10T11:03:32;38.88;;;22.20;;
67749;SDS011;54550;48.838;8.828;2022-12-10T11:06:00;38.53;;;22.98;;
67749;SDS011;54550;48.838;8.828;2022-12-10T11:08:30;36.53;;;22.13;;
67749;SDS011;54550;48.838;8.828;2022-12-10T11:11:10;41.03;;;23.75;;
67749;SDS011;54550;48.838;8.828;2022-12-10T11:13:41;43.55;;;24.02;;
67749;SDS011;54550;48.838;8.828;2022-12-10T11:16:23;53.00;;;24.83;;
67749;SDS011;54550;48.838;8.828;2022-12-10T11:18:56;45.38;;;24.25;;
67749;SDS011;54550;48.838;8.828;2022-12-10T11:21:27;44.05;;;23.85;;
67749;SDS011;54550;48.838;8.828;2022-12-10T11:23:55;42.70;;;22.33;;
67749;SDS011;54550;48.838;8.828;2022-12-10T11:26:37;35.40;;;22.00;;
67749;SDS011;54550;48.838;8.828;2022-12-10T11:29:27;43.35;;;22.20;;
67749;SDS011;54550;48.838;8.828;2022-12-10T11:32:14;42.83;;;20.95;;
67749;SDS011;54550;48.838;8.828;2022-12-10T11:45:26;37.25;;;20.25;;
67749;SDS011;54550;48.838;8.828;2022-12-10T11:48:01;41.88;;;22.85;;
67749;SDS011;54550;48.838;8.828;2022-12-10T11:50:48;34.17;;;20.58;;
67749;SDS011;54550;48.838;8.828;2022-12-10T11:53:28;40.20;;;22.40;;
67749;SDS011;54550;48.838;8.828;2022-12-10T11:56:05;48.38;;;23.40;;
67749;SDS011;54550;48.838;8.828;2022-12-10T11:58:49;43.20;;;23.85;;
67749;SDS011;54550;48.838;8.828;2022-12-10T12:04:12;41.65;;;23.08;;
67749;SDS011;54550;48.838;8.828;2022-12-10T12:15:40;49.95;;;24.48;;
67749;SDS011;54550;48.838;8.828;2022-12-10T12:18:20;42.28;;;21.55;;
67749;SDS011;54550;48.838;8.828;2022-12-10T12:20:48;41.25;;;21.77;;
67749;SDS011;54550;48.838;8.828;2022-12-10T12:23:26;43.42;;;22.90;;
67749;SDS011;54550;48.838;8.828;2022-12-10T12:26:07;46.00;;;22.42;;
67749;SDS011;54550;48.838;8.828;2022-12-10T12:29:01;40.53;;;22.73;;
67749;SDS011;54550;48.838;8.828;2022-12-10T12:31:43;49.03;;;23.17;;
67749;SDS011;54550;48.838;8.828;2022-12-10T12:34:16;38.92;;;22.38;;
67749;SDS011;54550;48.838;8.828;2022-12-10T12:36:49;39.50;;;20.60;;
67749;SDS011;54550;48.838;8.828;2022-12-10T12:42:04;46.35;;;24.38;;
67749;SDS011;54550;48.838;8.828;2022-12-10T12:47:41;40.10;;;17.90;;
67749;SDS011;54550;48.838;8.828;2022-12-10T12:52:54;31.38;;;19.80;;
67749;SDS011;54550;48.838;8.828;2022-12-10T12:58:09;39.08;;;21.23;;
67749;SDS011;54550;48.838;8.828;2022-12-10T13:00:53;39.85;;;20.23;;
67749;SDS011;54550;48.838;8.828;2022-12-10T13:03:42;35.85;;;19.80;;
67749;SDS011;54550;48.838;8.828;2022-12-10T13:08:41;35.63;;;19.65;;
67749;SDS011;54550;48.838;8.828;2022-12-10T13:24:17;36.03;;;20.15;;
67749;SDS011;54550;48.838;8.828;2022-12-10T13:29:29;35.90;;;18.55;;
67749;SDS011;54550;48.838;8.828;2022-12-10T13:32:19;38.53;;;21.27;;
67749;SDS011;54550;48.838;8.828;2022-12-10T13:35:15;35.92;;;18.65;;
67749;SDS011;54550;48.838;8.828;2022-12-10T13:42:54;35.50;;;20.20;;
67749;SDS011;54550;48.838;8.828;2022-12-10T13:45:41;37.65;;;20.63;;
67749;SDS011;54550;48.838;8.828;2022-12-10T13:48:25;37.63;;;20.60;;
67749;SDS011;54550;48.838;8.828;2022-12-10T13:53:49;33.28;;;20.95;;
67749;SDS011;54550;48.838;8.828;2022-12-10T13:56:36;33.95;;;19.35;;
67749;SDS011;54550;48.838;8.828;2022-12-10T14:07:39;49.20;;;26.35;;
67749;SDS011;54550;48.838;8.828;2022-12-10T14:10:12;43.88;;;23.77;;
67749;SDS011;54550;48.838;8.828;2022-12-10T14:12:41;43.60;;;24.88;;
67749;SDS011;54550;48.838;8.828;2022-12-10T14:15:13;37.35;;;23.20;;
67749;SDS011;54550;48.838;8.828;2022-12-10T14:17:49;42.05;;;22.08;;
67749;SDS011;54550;48.838;8.828;2022-12-10T14:20:18;43.10;;;21.42;;
67749;SDS011;54550;48.838;8.828;2022-12-10T14:22:51;41.38;;;23.52;;
67749;SDS011;54550;48.838;8.828;2022-12-10T14:25:41;38.17;;;22.23;;
67749;SDS011;54550;48.838;8.828;2022-12-10T14:28:11;46.42;;;22.80;;
67749;SDS011;54550;48.838;8.828;2022-12-10T14:30:42;42.88;;;22.75;;
67749;SDS011;54550;48.838;8.828;2022-12-10T14:33:16;37.90;;;22.38;;
67749;SDS011;54550;48.838;8.828;2022-12-10T14:35:47;43.90;;;21.77;;
67749;SDS011;54550;48.838;8.828;2022-12-10T14:38:18;40.78;;;21.98;;
67749;SDS011;54550;48.838;8.828;2022-12-10T14:41:04;38.28;;;22.33;;
67749;SDS011;54550;48.838;8.828;2022-12-10T14:43:35;25.63;;;16.27;;
67749;SDS011;54550;48.838;8.828;2022-12-10T14:46:03;42.38;;;21.65;;
67749;SDS011;54550;48.838;8.828;2022-12-10T14:48:30;33.90;;;19.67;;
67749;SDS011;54550;48.838;8.828;2022-12-10T14:51:12;38.30;;;19.60;;
67749;SDS011;54550;48.838;8.828;2022-12-10T14:53:40;31.58;;;19.42;;
67749;SDS011;54550;48.838;8.828;2022-12-10T14:56:06;39.73;;;22.70;;
67749;SDS011;54550;48.838;8.828;2022-12-10T14:58:37;42.45;;;19.73;;
67749;SDS011;54550;48.838;8.828;2022-12-10T15:01:15;34.92;;;20.38;;
67749;SDS011;54550;48.838;8.828;2022-12-10T15:03:47;37.70;;;20.60;;
67749;SDS011;54550;48.838;8.828;2022-12-10T15:06:15;29.60;;;17.77;;
67749;SDS011;54550;48.838;8.828;2022-12-10T15:08:42;41.28;;;19.92;;
67749;SDS011;54550;48.838;8.828;2022-12-10T15:11:10;28.08;;;18.10;;
67749;SDS011;54550;48.838;8.828;2022-12-10T15:13:42;40.85;;;17.10;;
67749;SDS011;54550;48.838;8.828;2022-12-10T15:16:20;34.85;;;18.52;;
67749;SDS011;54550;48.838;8.828;2022-12-10T15:18:54;29.45;;;15.18;;
67749;SDS011;54550;48.838;8.828;2022-12-10T15:21:22;25.65;;;16.50;;
67749;SDS011;54550;48.838;8.828;2022-12-10T15:23:49;28.83;;;17.60;;
67749;SDS011;54550;48.838;8.828;2022-12-10T15:26:32;30.50;;;17.17;;
67749;SDS011;54550;48.838;8.828;2022-12-10T15:31:54;30.90;;;17.23;;
67749;SDS011;54550;48.838;8.828;2022-12-10T15:34:25;34.17;;;19.25;;
67749;SDS011;54550;48.838;8.828;2022-12-10T15:36:55;42.33;;;17.15;;
67749;SDS011;54550;48.838;8.828;2022-12-10T15:39:25;33.80;;;18.40;;
67749;SDS011;54550;48.838;8.828;2022-12-10T15:42:00;50.53;;;25.77;;
67749;SDS011;54550;48.838;8.828;2022-12-10T15:49:46;30.63;;;17.95;;
67749;SDS011;54550;48.838;8.828;2022-12-10T15:52:14;34.03;;;18.60;;
67749;SDS011;54550;48.838;8.828;2022-12-10T15:54:40;31.58;;;19.00;;
67749;SDS011;54550;48.838;8.828;2022-12-10T15:57:15;31.90;;;17.38;;
67749;SDS011;54550;48.838;8.828;2022-12-10T15:59:46;30.48;;;17.85;;
67749;SDS011;54550;48.838;8.828;2022-12-10T16:04:57;35.67;;;18.75;;
67749;SDS011;54550;48.838;8.828;2022-12-10T16:07:23;34.40;;;19.20;;
67749;SDS011;54550;48.838;8.828;2022-12-10T16:09:49;41.90;;;21.80;;
67749;SDS011;54550;48.838;8.828;2022-12-10T16:12:14;36.90;;;19.37;;
67749;SDS011;54550;48.838;8.828;2022-12-10T16:14:42;33.25;;;19.00;;
67749;SDS011;54550;48.838;8.828;2022-12-10T16:17:17;42.53;;;19.20;;